createdAt,value
2022-10-06T00:08:37.188Z,68
2022-10-06T00:38:38.985Z,100
2022-10-06T00:48:39.669Z,100
2022-10-06T00:58:40.239Z,100
2022-10-06T01:08:40.382Z,100
2022-10-06T01:18:41.034Z,100
2022-10-06T01:28:41.877Z,97
2022-10-06T01:38:41.904Z,100
2022-10-06T01:48:42.256Z,97
2022-10-06T01:58:42.959Z,87
2022-10-06T02:08:43.947Z,85
2022-10-06T02:18:44.976Z,86
2022-10-06T02:28:45.242Z,86
2022-10-06T02:38:45.380Z,93
2022-10-06T02:48:45.808Z,96
2022-10-06T02:58:46.527Z,98
2022-10-06T03:08:46.902Z,95
2022-10-06T03:18:47.645Z,97
2022-10-06T03:28:48.323Z,94
2022-10-06T03:38:48.696Z,91
2022-10-06T03:58:49.235Z,82
2022-10-06T04:08:50.039Z,79
2022-10-06T04:28:51.548Z,72
2022-10-06T04:38:52.076Z,68
2022-10-06T04:48:52.897Z,60
2022-10-06T04:58:53.008Z,50
2022-10-06T05:08:53.216Z,45
2022-10-06T05:18:54.115Z,43
2022-10-06T05:28:54.754Z,44
2022-10-06T05:38:55.733Z,46
2022-10-06T05:48:55.937Z,41
2022-10-06T05:58:56.631Z,43
2022-10-06T06:08:56.762Z,49
2022-10-06T06:18:57.270Z,57
2022-10-06T06:28:58.132Z,71
2022-10-06T06:48:59.809Z,88
2022-10-06T06:59:06.743Z,94
2022-10-06T07:09:06.984Z,100
2022-10-06T07:19:07.505Z,100
2022-10-06T07:29:08.139Z,100
2022-10-06T07:39:08.699Z,100
2022-10-06T07:49:09.364Z,100
2022-10-06T07:59:10.196Z,100
2022-10-06T08:09:10.645Z,100
2022-10-06T08:19:11.573Z,100
2022-10-06T08:29:12.055Z,100
2022-10-06T08:49:13.100Z,100
2022-10-06T08:59:13.438Z,100
2022-10-06T09:09:19.479Z,100
2022-10-06T09:59:23.165Z,100
2022-10-06T10:09:24.105Z,100
2022-10-06T10:19:24.324Z,100
2022-10-06T10:29:24.405Z,100
2022-10-06T10:59:26.089Z,100
2022-10-06T11:09:26.980Z,100
2022-10-06T11:19:27.504Z,100
2022-10-06T11:29:27.801Z,100
2022-10-06T11:39:28.700Z,100
2022-10-06T11:49:29.040Z,100
2022-10-06T11:59:29.880Z,100
2022-10-06T12:09:30.912Z,100
2022-10-06T12:19:31.645Z,100
2022-10-06T12:39:33.485Z,100
2022-10-06T12:49:34.198Z,100
2022-10-06T12:59:34.391Z,100
2022-10-06T13:09:34.515Z,100
2022-10-06T13:19:34.844Z,100
2022-10-06T13:39:36.268Z,100
2022-10-06T13:49:36.887Z,100
2022-10-06T13:59:37.126Z,100
2022-10-06T14:19:38.628Z,100
2022-10-06T14:39:39.628Z,100
2022-10-06T14:59:40.811Z,100
2022-10-06T15:09:41.029Z,100
2022-10-06T15:19:41.189Z,100
2022-10-06T15:29:41.583Z,100
2022-10-06T15:39:42.097Z,100
2022-10-06T15:49:43.097Z,100
2022-10-06T15:59:43.732Z,100
2022-10-06T16:09:43.870Z,100
2022-10-06T16:29:45.455Z,100
2022-10-06T16:39:46.283Z,100
2022-10-06T16:49:47.141Z,100
2022-10-06T16:59:47.646Z,100
2022-10-06T17:19:48.191Z,100
2022-10-06T17:29:49.019Z,100
2022-10-06T17:39:49.480Z,100
2022-10-06T17:49:49.572Z,100
2022-10-06T18:09:49.963Z,100
2022-10-06T18:29:51.307Z,100
2022-10-06T18:49:52.680Z,100
2022-10-06T19:49:58.414Z,100
2022-10-06T20:09:57.270Z,100
2022-10-06T20:29:58.912Z,100
2022-10-06T20:50:00.296Z,100
2022-10-06T21:10:01.256Z,100
2022-10-06T21:20:01.663Z,100
2022-10-06T21:30:01.978Z,100
2022-10-06T21:40:02.735Z,100
2022-10-06T21:50:02.762Z,100
2022-10-06T22:00:03.523Z,100
2022-10-06T22:10:03.938Z,100
2022-10-06T22:50:05.278Z,100
